createdAt,value
2023-04-07T00:00:04.015Z,40.09
2023-04-07T00:02:31.213Z,40.13
2023-04-07T00:05:02.018Z,40.10
2023-04-07T00:07:37.214Z,40.03
2023-04-07T00:10:12.501Z,40.14
2023-04-07T00:12:49.440Z,40.07
2023-04-07T00:15:26.065Z,40.07
2023-04-07T00:17:56.378Z,40.08
2023-04-07T00:20:26.732Z,40.15
2023-04-07T00:22:54.269Z,40.10
2023-04-07T00:25:27.620Z,40.09
2023-04-07T00:27:56.151Z,40.10
2023-04-07T00:30:26.453Z,40.10
2023-04-07T00:32:59.497Z,40.09
2023-04-07T00:35:30.986Z,40.12
2023-04-07T00:37:58.488Z,40.03
2023-04-07T00:40:29.718Z,40.09
2023-04-07T00:43:00.353Z,40.08
2023-04-07T00:45:31.422Z,40.10
2023-04-07T00:48:07.164Z,40.04
2023-04-07T00:50:38.027Z,40.07
2023-04-07T00:53:06.129Z,40.00
2023-04-07T00:55:35.883Z,39.98
2023-04-07T00:58:06.305Z,40.00
2023-04-07T01:00:44.239Z,40.03
2023-04-07T01:03:25.051Z,40.03
2023-04-07T01:06:06.886Z,40.00
2023-04-07T01:08:44.938Z,40.01
2023-04-07T01:11:35.570Z,40.02
2023-04-07T01:14:04.109Z,40.03
2023-04-07T01:16:35.500Z,39.92
2023-04-07T01:19:17.390Z,39.96
2023-04-07T01:21:47.840Z,39.96
2023-04-07T01:24:18.486Z,39.95
2023-04-07T01:26:49.758Z,39.95
2023-04-07T01:29:27.707Z,39.95
2023-04-07T01:32:06.848Z,39.96
2023-04-07T01:34:35.823Z,39.95
2023-04-07T01:37:03.667Z,40.08
2023-04-07T01:39:35.642Z,40.13
2023-04-07T01:42:08.076Z,40.28
2023-04-07T01:44:38.904Z,40.48
2023-04-07T01:47:12.059Z,40.46
2023-04-07T01:49:41.376Z,40.50
2023-04-07T01:52:12.550Z,40.53
2023-04-07T01:54:44.478Z,40.49
2023-04-07T01:57:17.554Z,40.52
2023-04-07T01:59:47.943Z,40.56
2023-04-07T02:02:22.595Z,40.53
2023-04-07T02:04:59.462Z,40.52
2023-04-07T02:07:37.802Z,40.54
2023-04-07T02:10:13.102Z,40.56
2023-04-07T02:12:43.025Z,40.61
2023-04-07T02:15:12.592Z,40.61
2023-04-07T02:17:50.684Z,40.60
2023-04-07T02:20:22.494Z,40.61
2023-04-07T02:22:50.540Z,40.64
2023-04-07T02:25:31.974Z,40.66
2023-04-07T02:28:03.140Z,40.70
2023-04-07T02:30:33.839Z,40.73
2023-04-07T02:33:03.887Z,40.72
2023-04-07T02:35:37.306Z,40.71
2023-04-07T02:38:04.957Z,40.75
2023-04-07T02:40:35.607Z,40.73
2023-04-07T02:43:09.043Z,40.75
2023-04-07T02:45:46.159Z,40.74
2023-04-07T02:48:16.743Z,40.78
2023-04-07T02:50:44.021Z,40.74
2023-04-07T02:53:11.598Z,40.69
2023-04-07T02:55:39.776Z,40.67
2023-04-07T02:58:10.408Z,40.64
2023-04-07T03:00:40.949Z,40.61
2023-04-07T03:03:09.351Z,40.61
2023-04-07T03:05:42.485Z,40.58
2023-04-07T03:08:20.541Z,40.55
2023-04-07T03:10:50.912Z,40.54
2023-04-07T03:13:21.750Z,40.54
2023-04-07T03:15:54.670Z,40.54
2023-04-07T03:18:25.707Z,40.61
2023-04-07T03:20:59.199Z,40.59
2023-04-07T03:23:29.871Z,40.56
2023-04-07T03:26:00.972Z,40.58
2023-04-07T03:28:36.876Z,40.55
2023-04-07T03:31:07.208Z,40.59
2023-04-07T03:33:38.042Z,40.57
2023-04-07T03:36:06.201Z,40.57
2023-04-07T03:38:39.734Z,40.57
2023-04-07T03:41:10.414Z,40.59
2023-04-07T03:43:44.016Z,40.56
2023-04-07T03:46:15.193Z,40.59
2023-04-07T03:48:45.762Z,40.60
2023-04-07T03:51:15.960Z,40.59
2023-04-07T03:53:46.709Z,40.55
2023-04-07T03:56:14.673Z,40.56
2023-04-07T03:58:42.034Z,40.58
2023-04-07T04:01:13.145Z,40.60
2023-04-07T04:03:46.985Z,40.56
2023-04-07T04:06:15.666Z,40.59
2023-04-07T04:08:43.111Z,40.57
2023-04-07T04:11:13.512Z,40.58
2023-04-07T04:13:44.459Z,40.59
2023-04-07T04:16:13.790Z,40.60
2023-04-07T04:18:45.439Z,40.62
2023-04-07T04:21:18.707Z,40.58
2023-04-07T04:23:49.276Z,40.59
2023-04-07T04:26:19.535Z,40.61
2023-04-07T04:28:50.343Z,40.64
2023-04-07T04:31:21.223Z,40.67
2023-04-07T04:33:48.652Z,40.67
2023-04-07T04:36:16.739Z,40.66
2023-04-07T04:38:47.041Z,40.70
2023-04-07T04:41:17.456Z,40.68
2023-04-07T04:43:47.961Z,40.76
2023-04-07T04:46:21.314Z,40.77
2023-04-07T04:48:54.444Z,40.78
2023-04-07T04:51:24.659Z,40.76
2023-04-07T04:53:52.453Z,40.75
2023-04-07T04:56:23.171Z,40.82
2023-04-07T04:58:56.556Z,40.81
2023-04-07T05:01:26.937Z,40.82
2023-04-07T05:04:01.094Z,40.84
2023-04-07T05:06:28.803Z,40.86
2023-04-07T05:08:59.724Z,40.83
2023-04-07T05:11:31.672Z,40.79
2023-04-07T05:14:04.746Z,40.81
2023-04-07T05:16:37.866Z,40.78
2023-04-07T05:19:07.909Z,40.75
2023-04-07T05:21:38.072Z,40.75
2023-04-07T05:24:06.255Z,40.77
2023-04-07T05:26:39.534Z,40.74
2023-04-07T05:29:10.312Z,40.78
2023-04-07T05:31:42.495Z,40.81
2023-04-07T05:34:10.668Z,40.84
2023-04-07T05:36:38.203Z,40.78
2023-04-07T05:39:05.754Z,40.73
2023-04-07T05:41:36.271Z,40.80
2023-04-07T05:44:03.720Z,40.77
2023-04-07T05:46:34.284Z,40.75
2023-04-07T05:49:18.408Z,40.80
2023-04-07T05:51:50.147Z,40.85
2023-04-07T05:54:17.508Z,40.85
2023-04-07T05:56:56.888Z,40.90
2023-04-07T05:59:34.382Z,40.80
2023-04-07T06:02:02.032Z,40.76
2023-04-07T06:04:31.941Z,40.57
2023-04-07T06:06:59.384Z,40.59
2023-04-07T06:09:26.596Z,40.73
2023-04-07T06:11:55.928Z,40.79
2023-04-07T06:14:26.206Z,40.82
2023-04-07T06:16:53.699Z,40.72
2023-04-07T06:19:24.228Z,40.73
2023-04-07T06:21:52.742Z,41.06
2023-04-07T06:24:26.184Z,41.34
2023-04-07T06:26:56.982Z,41.46
2023-04-07T06:29:24.095Z,41.86
2023-04-07T06:31:53.524Z,41.79
2023-04-07T06:34:22.882Z,41.75
2023-04-07T06:36:51.592Z,41.72
2023-04-07T06:39:18.696Z,41.65
2023-04-07T06:41:48.293Z,41.54
2023-04-07T06:44:15.141Z,41.44
2023-04-07T06:46:45.601Z,41.38
2023-04-07T06:49:12.936Z,41.29
2023-04-07T06:51:45.642Z,41.04
2023-04-07T06:54:16.632Z,41.00
2023-04-07T06:56:47.364Z,40.97
2023-04-07T06:59:14.357Z,40.84
2023-04-07T07:01:41.902Z,40.79
2023-04-07T07:04:10.001Z,40.87
2023-04-07T07:06:43.315Z,41.21
2023-04-07T07:09:15.942Z,41.94
2023-04-07T07:11:48.555Z,41.77
2023-04-07T07:14:18.076Z,42.07
2023-04-07T07:16:45.179Z,41.90
2023-04-07T07:19:17.524Z,41.75
2023-04-07T07:21:44.570Z,41.31
2023-04-07T07:24:14.353Z,41.47
2023-04-07T07:26:42.291Z,41.48
2023-04-07T07:29:11.354Z,41.34
2023-04-07T07:31:38.246Z,41.43
2023-04-07T07:34:05.249Z,41.32
2023-04-07T07:36:35.131Z,41.23
2023-04-07T07:39:02.662Z,41.30
2023-04-07T07:41:31.538Z,40.96
2023-04-07T07:44:02.015Z,40.99
2023-04-07T07:46:29.597Z,41.01
2023-04-07T07:48:56.752Z,40.65
2023-04-07T07:51:23.748Z,40.71
2023-04-07T07:53:50.713Z,40.70
2023-04-07T07:56:17.771Z,40.72
2023-04-07T07:58:47.859Z,40.70
2023-04-07T08:01:18.351Z,40.71
2023-04-07T08:03:45.897Z,40.66
2023-04-07T08:06:15.025Z,40.63
2023-04-07T08:08:48.050Z,40.56
2023-04-07T08:11:15.234Z,40.56
2023-04-07T08:13:48.709Z,40.53
2023-04-07T08:16:16.778Z,40.46
2023-04-07T08:18:43.711Z,40.49
2023-04-07T08:21:10.575Z,40.41
2023-04-07T08:23:40.344Z,40.34
2023-04-07T08:26:10.684Z,40.33
2023-04-07T08:28:40.538Z,40.29
2023-04-07T08:31:08.258Z,40.26
2023-04-07T08:33:35.236Z,40.27
2023-04-07T08:36:02.161Z,40.23
2023-04-07T08:38:29.094Z,40.19
2023-04-07T08:41:08.214Z,40.10
2023-04-07T08:43:42.884Z,40.15
2023-04-07T08:46:16.730Z,40.12
2023-04-07T08:48:46.429Z,40.04
2023-04-07T08:51:14.872Z,40.03
2023-04-07T08:53:50.386Z,39.98
2023-04-07T08:56:18.381Z,40.02
2023-04-07T08:58:47.311Z,40.00
2023-04-07T09:01:14.950Z,40.00
2023-04-07T09:03:49.076Z,39.94
2023-04-07T09:06:16.462Z,39.92
2023-04-07T09:08:45.934Z,39.91
2023-04-07T09:11:19.100Z,39.92
2023-04-07T09:13:47.774Z,39.91
2023-04-07T09:16:20.729Z,39.88
2023-04-07T09:18:47.840Z,39.86
2023-04-07T09:21:15.762Z,39.85
2023-04-07T09:23:49.540Z,39.80
2023-04-07T09:26:22.495Z,39.78
2023-04-07T09:28:52.748Z,39.76
2023-04-07T09:31:43.442Z,39.73
2023-04-07T09:34:30.141Z,39.75
2023-04-07T09:37:00.264Z,39.72
2023-04-07T09:39:30.363Z,39.70
2023-04-07T09:42:09.661Z,39.68
2023-04-07T09:44:42.648Z,39.66
2023-04-07T09:47:10.236Z,39.59
2023-04-07T09:49:51.096Z,39.57
2023-04-07T09:52:18.488Z,39.61
2023-04-07T09:54:45.958Z,39.61
2023-04-07T09:57:13.541Z,39.61
2023-04-07T09:59:42.158Z,39.58
2023-04-07T10:02:09.475Z,39.55
2023-04-07T10:04:37.475Z,39.50
2023-04-07T10:07:05.613Z,39.47
2023-04-07T10:09:38.051Z,39.42
2023-04-07T10:12:06.757Z,39.46
2023-04-07T10:14:40.431Z,39.39
2023-04-07T10:17:08.549Z,39.42
2023-04-07T10:19:42.779Z,39.42
2023-04-07T10:22:10.066Z,39.42
2023-04-07T10:24:57.655Z,39.42
2023-04-07T10:27:51.308Z,39.45
2023-04-07T10:30:24.157Z,39.46
2023-04-07T10:32:53.390Z,39.42
2023-04-07T10:35:20.925Z,39.43
2023-04-07T10:38:10.553Z,39.41
2023-04-07T10:40:38.234Z,39.39
2023-04-07T10:43:05.890Z,39.29
2023-04-07T10:45:48.023Z,39.31
2023-04-07T10:48:22.340Z,39.29
2023-04-07T10:51:07.608Z,39.21
2023-04-07T10:53:37.437Z,39.22
2023-04-07T10:56:04.470Z,39.22
2023-04-07T10:58:32.284Z,39.10
2023-04-07T11:01:04.916Z,38.37
2023-04-07T11:03:37.640Z,38.16
2023-04-07T11:06:15.868Z,38.53
2023-04-07T11:08:48.749Z,38.87
2023-04-07T11:11:22.749Z,38.92
2023-04-07T11:13:51.672Z,39.02
2023-04-07T11:16:20.210Z,39.02
2023-04-07T11:18:50.227Z,39.08
2023-04-07T11:21:22.981Z,39.14
2023-04-07T11:23:49.973Z,39.17
2023-04-07T11:26:17.205Z,39.36
2023-04-07T11:28:52.429Z,39.36
2023-04-07T11:31:26.925Z,39.33
2023-04-07T11:33:56.100Z,39.46
2023-04-07T11:36:40.394Z,39.68
2023-04-07T11:39:27.469Z,39.72
2023-04-07T11:41:57.566Z,39.62
2023-04-07T11:44:30.292Z,39.62
2023-04-07T11:47:01.113Z,39.75
2023-04-07T11:49:29.344Z,39.81
2023-04-07T11:52:06.777Z,39.87
2023-04-07T11:54:47.074Z,39.89
2023-04-07T11:57:14.935Z,39.94
2023-04-07T11:59:44.661Z,39.66
2023-04-07T12:02:34.217Z,39.73
2023-04-07T12:05:04.702Z,39.66
2023-04-07T12:07:32.101Z,39.53
2023-04-07T12:09:59.268Z,39.77
2023-04-07T12:12:29.961Z,39.94
2023-04-07T12:15:02.695Z,39.87
2023-04-07T12:17:31.475Z,39.94
2023-04-07T12:19:58.628Z,40.11
2023-04-07T12:22:25.703Z,40.15
2023-04-07T12:24:52.880Z,39.64
2023-04-07T12:27:26.712Z,39.45
2023-04-07T12:30:11.891Z,39.32
2023-04-07T12:32:39.410Z,39.19
2023-04-07T12:35:09.027Z,39.33
2023-04-07T12:37:45.020Z,39.32
2023-04-07T12:40:18.244Z,38.93
2023-04-07T12:42:48.455Z,38.67
2023-04-07T12:45:15.395Z,38.54
2023-04-07T12:47:45.731Z,38.72
2023-04-07T12:50:13.651Z,38.73
2023-04-07T12:52:41.439Z,38.70
2023-04-07T12:55:14.836Z,38.58
2023-04-07T12:57:45.164Z,38.66
2023-04-07T13:00:15.556Z,38.49
2023-04-07T13:02:45.543Z,38.53
2023-04-07T13:05:12.445Z,38.51
2023-04-07T13:07:39.612Z,38.35
2023-04-07T13:10:09.849Z,38.41
2023-04-07T13:12:42.639Z,38.21
2023-04-07T13:15:15.479Z,38.43
2023-04-07T13:17:44.623Z,38.26
2023-04-07T13:20:12.133Z,38.23
2023-04-07T13:22:48.722Z,37.86
2023-04-07T13:25:22.527Z,38.50
2023-04-07T13:27:52.449Z,38.59
2023-04-07T13:30:22.967Z,38.60
2023-04-07T13:32:59.433Z,38.63
2023-04-07T13:35:29.998Z,38.67
2023-04-07T13:38:02.356Z,38.70
2023-04-07T13:40:32.840Z,38.69
2023-04-07T13:43:00.154Z,38.75
2023-04-07T13:45:27.689Z,38.91
2023-04-07T13:47:56.692Z,39.17
2023-04-07T13:50:26.979Z,38.61
2023-04-07T13:52:57.484Z,38.81
2023-04-07T13:55:27.639Z,38.82
2023-04-07T13:57:58.221Z,38.84
2023-04-07T14:00:29.100Z,38.88
2023-04-07T14:02:57.165Z,38.85
2023-04-07T14:05:25.120Z,38.75
2023-04-07T14:07:59.083Z,39.28
2023-04-07T14:10:29.886Z,39.34
2023-04-07T14:13:03.184Z,39.26
2023-04-07T14:15:30.332Z,39.30
2023-04-07T14:18:00.761Z,39.03
2023-04-07T14:20:28.393Z,38.96
2023-04-07T14:22:55.921Z,39.12
2023-04-07T14:25:23.353Z,39.36
2023-04-07T14:27:55.506Z,39.57
2023-04-07T14:30:23.035Z,39.53
2023-04-07T14:32:50.627Z,39.45
2023-04-07T14:35:18.530Z,39.37
2023-04-07T14:37:49.202Z,39.30
2023-04-07T14:40:21.338Z,39.25
2023-04-07T14:42:48.788Z,39.24
2023-04-07T14:45:16.509Z,39.35
2023-04-07T14:47:46.571Z,39.28
2023-04-07T14:50:14.380Z,39.45
2023-04-07T14:52:48.363Z,39.67
2023-04-07T14:55:15.831Z,39.90
2023-04-07T14:57:42.944Z,40.03
2023-04-07T15:00:11.058Z,39.93
2023-04-07T15:02:38.357Z,40.12
2023-04-07T15:05:06.706Z,40.40
2023-04-07T15:07:33.719Z,40.65
2023-04-07T15:10:01.508Z,40.85
2023-04-07T15:12:32.042Z,41.15
2023-04-07T15:15:05.855Z,41.06
2023-04-07T15:17:43.971Z,41.22
2023-04-07T15:20:13.196Z,41.23
2023-04-07T15:22:41.303Z,40.77
2023-04-07T15:25:08.565Z,40.66
2023-04-07T15:27:38.960Z,40.76
2023-04-07T15:30:09.504Z,40.77
2023-04-07T15:32:41.143Z,40.71
2023-04-07T15:35:11.474Z,40.57
2023-04-07T15:37:41.565Z,40.55
2023-04-07T15:40:09.407Z,40.53
2023-04-07T15:42:36.712Z,40.61
2023-04-07T15:45:05.411Z,40.76
2023-04-07T15:47:32.620Z,40.87
2023-04-07T15:49:59.516Z,40.92
2023-04-07T15:52:26.787Z,40.99
2023-04-07T15:54:56.083Z,40.88
2023-04-07T15:57:29.957Z,40.94
2023-04-07T15:59:56.927Z,40.41
2023-04-07T16:02:27.208Z,40.49
2023-04-07T16:04:54.437Z,40.48
2023-04-07T16:07:22.037Z,40.35
2023-04-07T16:09:52.712Z,40.18
2023-04-07T16:12:24.313Z,40.16
2023-04-07T16:14:53.878Z,40.19
2023-04-07T16:17:21.184Z,40.32
2023-04-07T16:19:48.337Z,40.54
2023-04-07T16:22:15.686Z,40.65
2023-04-07T16:24:48.767Z,40.77
2023-04-07T16:27:18.811Z,40.86
2023-04-07T16:29:48.747Z,40.87
2023-04-07T16:32:15.948Z,40.94
2023-04-07T16:34:42.886Z,41.08
2023-04-07T16:37:09.958Z,41.19
2023-04-07T16:39:39.591Z,41.22
2023-04-07T16:42:06.592Z,41.47
2023-04-07T16:44:38.179Z,41.61
2023-04-07T16:47:05.344Z,41.57
2023-04-07T16:49:32.195Z,41.48
2023-04-07T16:51:59.704Z,41.35
2023-04-07T16:54:27.565Z,41.02
2023-04-07T16:56:55.209Z,41.01
2023-04-07T16:59:22.908Z,40.93
2023-04-07T17:01:53.102Z,40.91
2023-04-07T17:04:23.543Z,40.92
2023-04-07T17:06:53.902Z,41.00
2023-04-07T17:09:23.760Z,40.95
2023-04-07T17:11:52.784Z,40.83
2023-04-07T17:14:26.636Z,40.73
2023-04-07T17:16:53.717Z,40.53
2023-04-07T17:19:22.961Z,40.74
2023-04-07T17:21:49.927Z,40.95
2023-04-07T17:24:19.744Z,41.03
2023-04-07T17:26:53.068Z,41.00
2023-04-07T17:29:29.209Z,40.97
2023-04-07T17:31:59.366Z,40.96
2023-04-07T17:34:26.842Z,40.95
2023-04-07T17:36:56.090Z,40.97
2023-04-07T17:39:26.247Z,40.88
2023-04-07T17:41:56.339Z,40.89
2023-04-07T17:44:26.427Z,40.79
2023-04-07T17:46:56.949Z,40.76
2023-04-07T17:49:30.357Z,40.81
2023-04-07T17:52:02.095Z,40.72
2023-04-07T17:54:32.881Z,40.58
2023-04-07T17:57:00.664Z,40.40
2023-04-07T17:59:28.702Z,40.07
2023-04-07T18:01:56.192Z,40.04
2023-04-07T18:04:25.974Z,40.09
2023-04-07T18:06:58.332Z,40.11
2023-04-07T18:09:27.733Z,39.54
2023-04-07T18:11:59.198Z,39.79
2023-04-07T18:14:26.618Z,39.83
2023-04-07T18:16:55.919Z,40.01
2023-04-07T18:19:26.553Z,40.18
2023-04-07T18:22:00.385Z,40.25
2023-04-07T18:24:28.575Z,40.26
2023-04-07T18:26:57.349Z,40.42
2023-04-07T18:29:28.402Z,40.25
2023-04-07T18:31:56.018Z,40.38
2023-04-07T18:34:23.867Z,40.42
2023-04-07T18:36:51.954Z,40.40
2023-04-07T18:39:23.249Z,40.46
2023-04-07T18:41:57.582Z,40.39
2023-04-07T18:44:37.572Z,40.42
2023-04-07T18:47:09.220Z,40.46
2023-04-07T18:49:42.399Z,40.49
2023-04-07T18:52:16.302Z,40.48
2023-04-07T18:54:44.997Z,40.56
2023-04-07T18:57:12.582Z,40.55
2023-04-07T18:59:40.468Z,40.59
2023-04-07T19:02:15.651Z,40.74
2023-04-07T19:04:46.839Z,40.85
2023-04-07T19:07:14.349Z,40.94
2023-04-07T19:09:44.919Z,41.05
2023-04-07T19:12:13.474Z,41.18
2023-04-07T19:14:43.235Z,42.02
2023-04-07T19:17:16.921Z,41.77
2023-04-07T19:19:47.706Z,41.65
2023-04-07T19:22:14.744Z,41.57
2023-04-07T19:24:41.604Z,41.46
2023-04-07T19:27:09.847Z,41.30
2023-04-07T19:29:39.717Z,41.29
2023-04-07T19:32:06.872Z,40.93
2023-04-07T19:34:33.975Z,40.93
2023-04-07T19:37:01.042Z,40.96
2023-04-07T19:39:30.656Z,40.92
2023-04-07T19:42:00.504Z,40.97
2023-04-07T19:44:27.668Z,41.06
2023-04-07T19:46:57.919Z,40.71
2023-04-07T19:49:25.002Z,40.85
2023-04-07T19:51:54.362Z,41.15
2023-04-07T19:54:22.291Z,41.24
2023-04-07T19:56:52.519Z,41.34
2023-04-07T19:59:25.503Z,41.59
2023-04-07T20:01:53.571Z,41.68
2023-04-07T20:04:20.883Z,41.60
2023-04-07T20:06:47.968Z,41.54
2023-04-07T20:09:14.858Z,41.54
2023-04-07T20:11:41.684Z,41.55
2023-04-07T20:14:11.396Z,41.54
2023-04-07T20:16:41.707Z,41.59
2023-04-07T20:19:11.792Z,41.59
2023-04-07T20:21:39.073Z,41.68
2023-04-07T20:24:06.063Z,41.64
2023-04-07T20:26:32.763Z,41.68
2023-04-07T20:28:59.770Z,41.75
2023-04-07T20:31:27.402Z,41.79
2023-04-07T20:33:59.905Z,41.79
2023-04-07T20:36:27.533Z,41.57
2023-04-07T20:38:58.285Z,41.41
2023-04-07T20:41:25.266Z,41.44
2023-04-07T20:43:54.891Z,41.26
2023-04-07T20:46:22.495Z,41.15
2023-04-07T20:48:52.537Z,41.10
2023-04-07T20:51:19.430Z,41.05
2023-04-07T20:53:49.685Z,40.94
2023-04-07T20:56:22.209Z,40.83
2023-04-07T20:58:49.315Z,40.74
2023-04-07T21:01:21.848Z,40.64
2023-04-07T21:03:51.119Z,40.53
2023-04-07T21:06:18.275Z,40.44
2023-04-07T21:08:48.355Z,40.30
2023-04-07T21:11:20.326Z,40.29
2023-04-07T21:13:47.183Z,40.16
2023-04-07T21:16:17.438Z,40.06
2023-04-07T21:18:44.530Z,39.95
2023-04-07T21:21:14.155Z,39.88
2023-04-07T21:23:41.020Z,39.81
2023-04-07T21:26:08.063Z,39.76
2023-04-07T21:28:37.522Z,39.71
2023-04-07T21:31:04.922Z,39.59
2023-04-07T21:33:35.250Z,39.53
2023-04-07T21:36:07.327Z,39.47
2023-04-07T21:38:34.337Z,39.43
2023-04-07T21:41:04.642Z,39.39
2023-04-07T21:43:34.186Z,39.41
2023-04-07T21:46:01.264Z,39.36
2023-04-07T21:48:31.506Z,39.27
2023-04-07T21:51:04.627Z,39.27
2023-04-07T21:53:32.086Z,39.28
2023-04-07T21:56:02.128Z,39.19
2023-04-07T21:58:29.132Z,39.19
2023-04-07T22:00:58.961Z,39.19
2023-04-07T22:03:29.442Z,39.16
2023-04-07T22:06:03.933Z,39.18
2023-04-07T22:08:31.679Z,39.30
2023-04-07T22:10:58.532Z,39.35
2023-04-07T22:13:31.066Z,39.37
2023-04-07T22:15:58.009Z,39.34
2023-04-07T22:18:24.959Z,39.50
2023-04-07T22:20:55.123Z,39.48
2023-04-07T22:23:22.054Z,39.54
2023-04-07T22:25:51.563Z,39.54
2023-04-07T22:28:18.756Z,39.57
2023-04-07T22:30:49.046Z,39.57
2023-04-07T22:33:16.437Z,39.75
2023-04-07T22:35:48.536Z,39.89
2023-04-07T22:38:15.411Z,39.92
2023-04-07T22:40:45.422Z,40.07
2023-04-07T22:43:14.124Z,40.06
2023-04-07T22:45:44.443Z,40.12
2023-04-07T22:48:14.517Z,40.13
2023-04-07T22:50:41.925Z,40.15
2023-04-07T22:53:09.524Z,40.20
2023-04-07T22:55:36.612Z,40.24
2023-04-07T22:58:03.843Z,40.37
2023-04-07T23:00:34.097Z,40.38
2023-04-07T23:03:03.834Z,40.40
2023-04-07T23:05:37.244Z,40.49
2023-04-07T23:08:04.201Z,40.48
2023-04-07T23:10:32.281Z,40.54
2023-04-07T23:13:02.432Z,40.53
2023-04-07T23:15:29.608Z,40.61
2023-04-07T23:17:59.675Z,40.66
2023-04-07T23:20:26.711Z,40.68
2023-04-07T23:22:53.849Z,40.67
2023-04-07T23:25:24.977Z,40.68
2023-04-07T23:27:57.922Z,40.71
2023-04-07T23:30:24.834Z,40.75
2023-04-07T23:32:51.716Z,40.76
2023-04-07T23:35:19.023Z,40.76
2023-04-07T23:37:46.306Z,40.77
2023-04-07T23:40:13.544Z,40.72
2023-04-07T23:42:41.036Z,40.76
2023-04-07T23:45:14.673Z,40.78
2023-04-07T23:47:44.725Z,40.81
2023-04-07T23:50:17.812Z,40.77
2023-04-07T23:52:47.339Z,40.84
2023-04-07T23:55:14.381Z,40.75
2023-04-07T23:57:46.357Z,40.76
